Time;durP1;ratioP1;P1;durP2;ratioP2;P2;SDS_P1;SDS_P2;PMS_P1;PMS_P2;Temp;Humidity;BMP_temperature;BMP_pressure;BME280_temperature;BME280_humidity;BME280_pressure;Samples;Min_cycle;Max_cycle;Signal;HPM_P1;HPM_P2
2022/03/24 00:00:17;;;;;;;18.15;11.07;;;7.20;59.20;;;;;;5074768;28;20211;-72
2022/03/24 00:02:45;;;;;;;27.98;12.30;;;7.20;59.20;;;;;;5076821;28;20238;-72
2022/03/24 00:05:13;;;;;;;19.63;12.93;;;7.10;59.00;;;;;;5072327;28;20208;-71
2022/03/24 00:07:42;;;;;;;18.52;12.18;;;7.00;59.10;;;;;;5077993;28;20219;-71
2022/03/24 00:10:11;;;;;;;23.30;13.60;;;6.90;59.30;;;;;;5072158;28;20204;-72
2022/03/24 00:12:40;;;;;;;25.02;12.70;;;6.90;59.40;;;;;;5055058;28;20200;-72
2022/03/24 00:15:09;;;;;;;22.52;14.88;;;6.90;59.50;;;;;;5080016;28;20576;-71
2022/03/24 00:17:37;;;;;;;21.73;13.30;;;6.80;59.60;;;;;;5079199;28;20703;-71
2022/03/24 00:20:06;;;;;;;23.00;13.43;;;6.90;59.70;;;;;;5074629;28;20257;-71
2022/03/24 00:22:34;;;;;;;22.75;12.98;;;6.90;59.80;;;;;;5072919;28;20554;-71
2022/03/24 00:25:02;;;;;;;23.90;14.05;;;6.90;59.80;;;;;;5081222;28;20311;-70
2022/03/24 00:27:30;;;;;;;25.90;14.85;;;6.90;59.90;;;;;;5075121;28;20211;-71
2022/03/24 00:29:59;;;;;;;22.02;14.35;;;6.90;60.00;;;;;;5078803;28;20701;-71
2022/03/24 00:32:27;;;;;;;29.13;13.43;;;7.00;60.10;;;;;;5076814;28;20626;-71
2022/03/24 00:34:55;;;;;;;23.95;12.98;;;7.00;60.00;;;;;;5075064;28;20232;-71
2022/03/24 00:37:25;;;;;;;18.95;12.32;;;7.10;59.90;;;;;;5059658;28;20696;-71
2022/03/24 00:39:53;;;;;;;21.63;13.02;;;7.00;59.80;;;;;;5075109;28;20207;-71
2022/03/24 00:42:21;;;;;;;22.27;13.90;;;7.00;59.80;;;;;;5078948;28;20227;-71
2022/03/24 00:44:51;;;;;;;24.05;14.60;;;6.90;59.80;;;;;;5082948;28;20222;-71
2022/03/24 00:47:20;;;;;;;26.13;15.70;;;6.90;59.80;;;;;;5070037;28;20610;-72
2022/03/24 00:49:48;;;;;;;39.22;21.08;;;6.80;59.80;;;;;;5076296;28;20287;-71
2022/03/24 00:52:18;;;;;;;49.20;25.13;;;6.70;59.80;;;;;;5079751;28;20852;-72
2022/03/24 00:54:47;;;;;;;53.80;28.15;;;6.60;59.80;;;;;;5077689;28;20372;-72
2022/03/24 00:57:17;;;;;;;46.63;26.35;;;6.50;59.80;;;;;;5080694;28;20199;-72
2022/03/24 00:59:46;;;;;;;49.92;29.38;;;6.40;59.90;;;;;;5076059;28;20230;-72
2022/03/24 01:02:14;;;;;;;56.15;29.48;;;6.40;60.00;;;;;;5076941;28;20269;-73
2022/03/24 01:04:44;;;;;;;32.22;19.88;;;6.40;60.20;;;;;;5058639;28;20278;-72
2022/03/24 01:07:12;;;;;;;28.50;16.50;;;6.30;60.30;;;;;;5058047;28;20302;-70
2022/03/24 01:09:39;;;;;;;22.65;15.13;;;6.30;60.40;;;;;;5063718;28;20199;-73
2022/03/24 01:12:09;;;;;;;27.23;15.93;;;6.30;60.50;;;;;;5067583;28;20207;-73
2022/03/24 01:14:38;;;;;;;27.15;16.23;;;6.20;60.50;;;;;;5074832;28;20211;-72
2022/03/24 01:17:07;;;;;;;22.25;14.38;;;6.20;60.60;;;;;;5073789;28;20226;-71
2022/03/24 01:19:36;;;;;;;24.52;14.02;;;6.20;60.60;;;;;;5073660;28;20203;-71
2022/03/24 01:22:05;;;;;;;21.80;13.57;;;6.20;60.70;;;;;;5063849;28;20200;-71
2022/03/24 01:24:37;;;;;;;21.98;13.70;;;6.20;60.70;;;;;;5075597;28;20239;-70
2022/03/24 01:27:06;;;;;;;18.63;13.05;;;6.10;60.70;;;;;;5056480;28;20869;-71
2022/03/24 01:29:34;;;;;;;20.63;13.68;;;6.10;60.70;;;;;;5064434;28;20667;-71
2022/03/24 01:32:03;;;;;;;23.48;13.93;;;6.00;60.80;;;;;;5063907;28;20231;-71
2022/03/24 01:34:31;;;;;;;20.02;13.05;;;6.10;61.00;;;;;;5070444;28;20250;-72
2022/03/24 01:36:59;;;;;;;25.15;13.60;;;6.10;61.10;;;;;;5075881;28;20206;-71
2022/03/24 01:39:28;;;;;;;20.65;12.68;;;6.20;61.10;;;;;;5077095;28;20234;-72
2022/03/24 01:41:56;;;;;;;24.23;14.20;;;6.20;61.00;;;;;;5063598;28;20230;-71
2022/03/24 01:44:26;;;;;;;20.98;13.73;;;6.10;60.90;;;;;;5069371;28;20227;-72
2022/03/24 01:46:56;;;;;;;22.02;14.20;;;6.10;60.90;;;;;;5075928;28;20231;-72
2022/03/24 01:49:25;;;;;;;23.08;14.27;;;6.10;61.00;;;;;;5075342;28;20203;-72
2022/03/24 01:51:53;;;;;;;23.17;12.88;;;6.00;60.90;;;;;;5077780;28;20199;-71
2022/03/24 01:54:23;;;;;;;37.25;17.50;;;6.00;60.90;;;;;;5075501;28;20849;-71
2022/03/24 01:56:54;;;;;;;26.20;17.23;;;5.90;60.90;;;;;;5076979;28;20196;-71
2022/03/24 01:59:22;;;;;;;26.02;16.40;;;5.80;61.00;;;;;;5070201;28;20215;-72
2022/03/24 02:01:50;;;;;;;28.90;16.90;;;5.80;61.00;;;;;;5071102;28;20904;-72
2022/03/24 02:04:19;;;;;;;29.27;15.45;;;5.70;61.10;;;;;;5066109;28;20322;-72
2022/03/24 02:06:48;;;;;;;25.25;16.15;;;5.70;61.30;;;;;;5064305;28;20212;-72
2022/03/24 02:09:16;;;;;;;25.10;15.70;;;5.80;61.50;;;;;;5057314;28;20283;-73
2022/03/24 02:11:45;;;;;;;21.75;14.07;;;5.80;61.60;;;;;;5066105;28;20219;-72
2022/03/24 02:14:15;;;;;;;27.92;15.68;;;5.80;61.50;;;;;;5060537;28;20232;-71
2022/03/24 02:16:46;;;;;;;23.33;14.98;;;5.80;61.40;;;;;;5055977;28;20239;-72
2022/03/24 02:19:16;;;;;;;22.55;15.13;;;5.80;61.40;;;;;;5067814;28;20922;-72
2022/03/24 02:21:45;;;;;;;23.30;14.88;;;5.70;61.30;;;;;;5067075;28;20234;-72
2022/03/24 02:24:16;;;;;;;24.02;13.95;;;5.70;61.40;;;;;;5076592;28;20232;-73
2022/03/24 02:26:46;;;;;;;20.90;14.55;;;5.60;61.40;;;;;;5077990;28;20207;-71
2022/03/24 02:29:16;;;;;;;23.80;15.35;;;5.60;61.40;;;;;;5077962;28;20226;-73
2022/03/24 02:31:47;;;;;;;29.42;16.42;;;5.60;61.50;;;;;;5075515;28;20366;-73
2022/03/24 02:37:06;;;;;;;31.33;18.90;;;5.50;61.70;;;;;;5075951;28;20204;-71
2022/03/24 02:39:36;;;;;;;29.70;17.33;;;5.50;61.80;;;;;;5074632;28;20203;-73
2022/03/24 02:42:05;;;;;;;24.70;15.32;;;5.50;61.80;;;;;;5078898;28;20203;-73
2022/03/24 02:44:33;;;;;;;25.45;14.82;;;5.50;61.80;;;;;;5078163;28;20715;-72
2022/03/24 02:47:05;;;;;;;26.67;16.02;;;5.50;61.90;;;;;;5080448;28;20235;-72
2022/03/24 02:49:34;;;;;;;25.98;14.95;;;5.60;62.00;;;;;;5082537;28;20256;-72
2022/03/24 02:52:03;;;;;;;25.67;15.75;;;5.70;62.10;;;;;;5060281;28;20886;-73
2022/03/24 02:54:32;;;;;;;26.00;15.32;;;5.70;62.00;;;;;;5078420;28;20208;-73
2022/03/24 02:57:02;;;;;;;29.52;17.65;;;5.70;61.80;;;;;;5076221;28;20196;-72
2022/03/24 02:59:30;;;;;;;28.15;16.15;;;5.60;61.70;;;;;;5074109;28;20199;-72
2022/03/24 03:02:00;;;;;;;24.88;15.25;;;5.60;61.70;;;;;;5074498;28;20920;-70
2022/03/24 03:04:31;;;;;;;26.23;15.65;;;5.50;61.60;;;;;;5073075;28;20946;-72
2022/03/24 03:07:00;;;;;;;32.53;18.65;;;5.40;61.70;;;;;;5074969;28;20226;-72
2022/03/24 03:09:28;;;;;;;38.40;17.50;;;5.30;61.80;;;;;;5076964;28;20199;-73
2022/03/24 03:11:56;;;;;;;33.92;18.67;;;5.30;61.80;;;;;;5076733;28;20215;-72
2022/03/24 03:14:26;;;;;;;32.00;18.05;;;5.30;62.00;;;;;;5073592;28;20765;-73
2022/03/24 03:16:54;;;;;;;32.83;18.58;;;5.20;62.00;;;;;;5082546;28;20980;-72
2022/03/24 03:19:23;;;;;;;24.48;14.13;;;5.20;62.00;;;;;;5074735;28;20211;-72
2022/03/24 03:21:51;;;;;;;19.85;14.20;;;5.10;62.00;;;;;;5077684;28;20204;-74
2022/03/24 03:24:21;;;;;;;30.67;16.13;;;5.10;62.20;;;;;;5082055;28;20211;-70
2022/03/24 03:26:50;;;;;;;20.63;13.68;;;5.10;62.20;;;;;;5080828;28;20222;-73
2022/03/24 03:29:18;;;;;;;21.17;13.10;;;5.10;62.30;;;;;;5069475;28;20724;-72
2022/03/24 03:31:47;;;;;;;23.08;13.48;;;5.10;62.30;;;;;;5079034;28;20224;-72
2022/03/24 03:34:15;;;;;;;18.00;13.25;;;5.10;62.50;;;;;;5080329;28;20230;-72
2022/03/24 03:36:44;;;;;;;28.17;13.15;;;5.10;62.50;;;;;;5058342;28;20217;-72
2022/03/24 03:39:12;;;;;;;22.25;13.27;;;5.10;62.50;;;;;;5075953;28;20212;-72
2022/03/24 03:41:41;;;;;;;21.38;13.30;;;5.10;62.50;;;;;;5062606;28;20207;-72
2022/03/24 03:44:09;;;;;;;25.83;14.30;;;5.10;62.60;;;;;;5075095;28;20216;-72
2022/03/24 03:46:38;;;;;;;21.30;12.60;;;5.20;62.60;;;;;;5074652;28;20253;-72
2022/03/24 03:49:08;;;;;;;30.65;12.80;;;5.20;62.50;;;;;;5077821;28;20208;-72
2022/03/24 03:51:37;;;;;;;24.88;12.50;;;5.20;62.40;;;;;;5079310;28;20195;-73
2022/03/24 03:54:07;;;;;;;21.55;12.30;;;5.10;62.40;;;;;;5080433;28;20219;-73
2022/03/24 03:56:36;;;;;;;18.70;12.43;;;5.10;62.40;;;;;;5083712;28;20203;-73
2022/03/24 03:59:04;;;;;;;20.50;11.73;;;5.00;62.40;;;;;;5078254;28;20278;-72
2022/03/24 04:01:32;;;;;;;21.50;13.35;;;5.00;62.50;;;;;;5062684;28;20226;-72
2022/03/24 04:04:00;;;;;;;19.67;12.10;;;4.90;62.50;;;;;;5074349;28;20236;-72
2022/03/24 04:06:30;;;;;;;20.30;13.25;;;4.90;62.50;;;;;;5075859;28;20289;-72
2022/03/24 04:08:58;;;;;;;18.08;12.30;;;4.80;62.50;;;;;;5074984;28;20249;-72
2022/03/24 04:11:26;;;;;;;20.55;13.32;;;4.80;62.50;;;;;;5078573;28;20254;-72
2022/03/24 04:13:53;;;;;;;25.52;12.18;;;4.70;62.60;;;;;;5079197;28;20219;-72
2022/03/24 04:16:22;;;;;;;22.10;13.32;;;4.80;62.70;;;;;;5074274;28;20231;-71
2022/03/24 04:18:50;;;;;;;18.92;12.68;;;4.80;62.80;;;;;;5078760;28;20210;-72
2022/03/24 04:21:19;;;;;;;23.70;13.93;;;4.80;62.80;;;;;;5078805;28;20204;-72
2022/03/24 04:23:49;;;;;;;20.80;12.57;;;4.80;63.10;;;;;;5078125;28;20303;-72
2022/03/24 04:26:17;;;;;;;19.30;13.43;;;4.80;62.90;;;;;;5074525;28;20263;-72
2022/03/24 04:28:45;;;;;;;27.48;14.10;;;4.80;62.80;;;;;;5070255;28;20231;-72
2022/03/24 04:31:13;;;;;;;20.38;12.68;;;4.70;62.70;;;;;;5079919;28;20239;-72
2022/03/24 04:33:41;;;;;;;22.95;13.20;;;4.70;62.70;;;;;;5085161;28;20223;-73
2022/03/24 04:36:10;;;;;;;21.70;14.23;;;4.60;62.80;;;;;;5078301;28;20286;-72
2022/03/24 04:38:38;;;;;;;22.30;13.30;;;4.50;62.90;;;;;;5079815;28;20207;-72
2022/03/24 04:41:08;;;;;;;17.10;11.90;;;4.50;63.00;;;;;;5077874;28;20249;-72
2022/03/24 04:43:37;;;;;;;20.63;13.07;;;4.40;62.90;;;;;;5078859;28;20239;-71
2022/03/24 04:46:05;;;;;;;20.52;13.35;;;4.40;63.10;;;;;;5077717;28;20231;-71
2022/03/24 04:48:36;;;;;;;20.27;13.68;;;4.40;63.20;;;;;;5073487;28;20258;-71
2022/03/24 04:51:06;;;;;;;18.27;11.95;;;4.40;63.30;;;;;;5078139;28;20195;-71
2022/03/24 04:53:34;;;;;;;23.42;13.73;;;4.40;63.40;;;;;;5077169;28;20768;-71
2022/03/24 04:56:02;;;;;;;21.48;12.63;;;4.40;63.30;;;;;;5076032;28;20929;-71
2022/03/24 04:58:32;;;;;;;23.08;12.55;;;4.50;63.50;;;;;;5078845;28;20203;-72
2022/03/24 05:01:00;;;;;;;19.55;12.68;;;4.60;63.60;;;;;;5075861;28;20327;-72
2022/03/24 05:03:29;;;;;;;23.30;12.63;;;4.70;63.70;;;;;;5068276;28;20239;-71
2022/03/24 05:05:57;;;;;;;21.05;13.32;;;4.70;63.60;;;;;;5075707;28;20241;-70
2022/03/24 05:08:25;;;;;;;21.42;13.38;;;4.80;63.50;;;;;;5077394;28;20210;-71
2022/03/24 05:10:54;;;;;;;20.05;12.90;;;4.80;63.40;;;;;;5074965;28;20702;-71
2022/03/24 05:13:22;;;;;;;22.42;14.27;;;4.80;63.30;;;;;;5075490;28;20227;-72
2022/03/24 05:15:51;;;;;;;20.48;14.18;;;4.80;63.20;;;;;;5073346;28;20258;-71
2022/03/24 05:18:19;;;;;;;23.92;14.10;;;4.70;63.10;;;;;;5079858;28;20233;-72
2022/03/24 05:20:48;;;;;;;20.52;12.57;;;4.60;63.10;;;;;;5075612;28;20254;-72
2022/03/24 05:23:16;;;;;;;20.73;13.00;;;4.60;63.20;;;;;;5077267;28;20255;-72
2022/03/24 05:25:47;;;;;;;22.38;12.65;;;4.60;63.20;;;;;;5086337;28;20586;-72
2022/03/24 05:28:16;;;;;;;20.50;12.30;;;4.50;63.20;;;;;;5077030;28;20202;-72
2022/03/24 05:30:44;;;;;;;22.88;13.00;;;4.50;63.10;;;;;;5063341;28;20223;-71
2022/03/24 05:33:16;;;;;;;21.23;13.57;;;4.50;63.10;;;;;;5078562;28;20220;-72
2022/03/24 05:35:44;;;;;;;18.33;12.52;;;4.40;63.30;;;;;;5071156;28;20210;-71
2022/03/24 05:38:13;;;;;;;20.08;11.65;;;4.40;63.30;;;;;;5074159;28;20203;-71
2022/03/24 05:40:41;;;;;;;21.73;13.63;;;4.50;63.50;;;;;;5076473;28;20215;-72
2022/03/24 05:43:10;;;;;;;23.77;14.82;;;4.50;63.60;;;;;;5073779;28;20235;-71
2022/03/24 05:45:38;;;;;;;20.27;13.35;;;4.60;63.70;;;;;;5074236;28;21064;-72
2022/03/24 05:48:06;;;;;;;26.15;13.82;;;4.70;63.70;;;;;;5070578;28;20731;-73
2022/03/24 05:51:06;;;;;;;28.90;14.23;;;4.70;63.60;;;;;;5061099;28;20230;-72
2022/03/24 05:53:34;;;;;;;20.88;13.80;;;4.70;63.50;;;;;;5074031;28;20248;-72
2022/03/24 05:56:02;;;;;;;25.08;14.80;;;4.70;63.40;;;;;;5068254;28;20215;-72
2022/03/24 05:58:30;;;;;;;22.00;14.15;;;4.60;63.50;;;;;;5078967;28;20199;-73
2022/03/24 06:00:58;;;;;;;21.77;13.07;;;4.60;63.50;;;;;;5084451;28;20846;-72
2022/03/24 06:03:29;;;;;;;23.58;14.43;;;4.60;63.60;;;;;;5076966;28;20208;-73
2022/03/24 06:05:59;;;;;;;33.88;18.00;;;4.60;63.60;;;;;;5089608;28;20225;-71
2022/03/24 06:08:28;;;;;;;31.65;18.40;;;4.60;63.60;;;;;;5065301;28;20208;-72
2022/03/24 06:10:56;;;;;;;31.15;17.65;;;4.60;63.50;;;;;;5068372;28;20257;-73
2022/03/24 06:13:25;;;;;;;27.98;16.77;;;4.60;63.60;;;;;;5082380;28;20779;-73
2022/03/24 06:15:54;;;;;;;24.83;16.50;;;4.60;63.70;;;;;;5079335;28;20235;-73
2022/03/24 06:18:22;;;;;;;28.73;15.82;;;4.60;63.80;;;;;;5068403;28;20207;-71
2022/03/24 06:20:50;;;;;;;38.42;23.95;;;4.70;63.70;;;;;;5075565;28;20211;-73
2022/03/24 06:23:18;;;;;;;23.92;17.10;;;4.70;63.70;;;;;;5073950;28;20249;-71
2022/03/24 06:25:48;;;;;;;31.10;16.90;;;4.70;63.70;;;;;;5078218;28;20680;-71
2022/03/24 06:28:16;;;;;;;26.60;19.05;;;4.70;63.80;;;;;;5086816;28;20211;-72
2022/03/24 06:30:44;;;;;;;28.83;20.88;;;4.70;63.90;;;;;;5079090;28;20239;-71
2022/03/24 06:33:12;;;;;;;37.85;20.40;;;4.80;64.00;;;;;;5079267;28;20235;-71
2022/03/24 06:35:40;;;;;;;34.78;20.50;;;4.80;64.10;;;;;;5079767;28;20215;-71
2022/03/24 06:38:08;;;;;;;28.80;18.73;;;4.80;64.10;;;;;;5077092;28;20208;-71
2022/03/24 06:40:38;;;;;;;29.00;19.55;;;4.90;64.20;;;;;;5079038;28;20211;-71
2022/03/24 06:43:08;;;;;;;34.67;19.63;;;5.00;64.30;;;;;;5076369;28;20206;-71
2022/03/24 06:45:36;;;;;;;35.88;19.23;;;5.10;64.30;;;;;;5080781;28;20247;-71
2022/03/24 06:48:06;;;;;;;34.35;19.80;;;5.10;64.30;;;;;;5060443;28;20208;-71
2022/03/24 06:50:35;;;;;;;29.13;18.67;;;5.20;64.40;;;;;;5080272;28;20211;-71
2022/03/24 06:53:04;;;;;;;29.88;19.50;;;5.30;64.40;;;;;;5056942;28;20212;-72
2022/03/24 06:55:32;;;;;;;28.50;16.90;;;5.40;64.40;;;;;;5077030;28;20207;-72
2022/03/24 06:58:00;;;;;;;25.27;16.50;;;5.40;64.50;;;;;;5080057;28;20599;-73
2022/03/24 07:00:30;;;;;;;24.40;15.02;;;5.50;64.50;;;;;;5081046;28;20234;-71
2022/03/24 07:02:58;;;;;;;32.17;19.02;;;5.60;64.50;;;;;;5077429;28;20208;-72
2022/03/24 07:05:26;;;;;;;26.20;17.58;;;5.60;64.60;;;;;;5072654;28;20457;-73
2022/03/24 07:07:55;;;;;;;32.65;18.65;;;5.70;65.10;;;;;;5074458;28;20212;-72
2022/03/24 07:10:24;;;;;;;27.02;17.38;;;5.80;64.90;;;;;;5077438;28;20214;-73
2022/03/24 07:12:52;;;;;;;25.75;16.02;;;5.90;65.00;;;;;;5077815;28;20208;-71
2022/03/24 07:15:22;;;;;;;24.35;16.30;;;5.90;64.90;;;;;;5074691;28;20210;-71
2022/03/24 07:17:52;;;;;;;22.20;15.25;;;6.00;64.90;;;;;;5074723;28;20254;-71
2022/03/24 07:20:21;;;;;;;30.45;16.35;;;6.10;64.90;;;;;;5077033;28;20265;-71
2022/03/24 07:22:49;;;;;;;26.38;15.38;;;6.10;64.90;;;;;;5071847;28;20214;-71
2022/03/24 07:25:17;;;;;;;28.80;16.00;;;6.20;65.00;;;;;;5077849;28;20207;-71
2022/03/24 07:27:45;;;;;;;27.20;16.27;;;6.30;65.00;;;;;;5078379;28;20597;-71
2022/03/24 07:30:13;;;;;;;28.33;15.98;;;6.30;65.10;;;;;;5076424;28;20207;-72
2022/03/24 07:32:43;;;;;;;21.80;14.65;;;6.40;65.20;;;;;;5080594;28;20203;-71
2022/03/24 07:35:18;;;;;;;24.60;16.08;;;6.40;65.30;;;;;;5060798;28;20295;-72
2022/03/24 07:37:47;;;;;;;21.45;15.48;;;6.50;65.30;;;;;;5074657;28;20571;-72
2022/03/24 07:40:18;;;;;;;25.13;15.13;;;6.60;65.30;;;;;;5072775;28;20748;-73
2022/03/24 07:42:46;;;;;;;24.52;16.75;;;6.70;65.40;;;;;;5075029;28;20203;-72
2022/03/24 07:45:14;;;;;;;23.90;17.38;;;6.80;65.20;;;;;;5064916;28;20439;-72
2022/03/24 07:48:06;;;;;;;27.27;16.58;;;7.00;65.50;;;;;;5079244;28;20259;-72
2022/03/24 07:50:35;;;;;;;24.17;16.10;;;7.10;65.30;;;;;;5073715;28;20199;-73
2022/03/24 07:53:17;;;;;;;36.65;17.30;;;7.10;65.30;;;;;;5074023;28;20264;-72
2022/03/24 07:55:47;;;;;;;25.88;16.38;;;7.20;65.40;;;;;;5073235;28;20203;-71
2022/03/24 07:58:17;;;;;;;26.35;17.30;;;7.30;65.40;;;;;;5077227;28;20753;-72
2022/03/24 08:00:45;;;;;;;26.52;17.35;;;7.30;65.40;;;;;;5083114;28;20608;-73
2022/03/24 08:03:16;;;;;;;28.58;15.55;;;7.40;65.40;;;;;;5077248;28;20231;-72
2022/03/24 08:05:46;;;;;;;24.05;15.57;;;7.50;65.30;;;;;;5077371;28;20247;-72
2022/03/24 08:08:15;;;;;;;21.08;14.95;;;7.50;65.50;;;;;;5057667;28;20200;-72
2022/03/24 08:10:44;;;;;;;25.48;16.52;;;7.60;65.50;;;;;;5073769;28;20688;-72
2022/03/24 08:13:13;;;;;;;22.85;14.68;;;7.70;65.50;;;;;;5079141;28;20703;-72
2022/03/24 08:15:41;;;;;;;23.90;16.02;;;7.70;65.30;;;;;;5077475;28;20223;-72
2022/03/24 08:18:10;;;;;;;25.17;16.20;;;7.80;65.30;;;;;;5057930;28;20827;-72
2022/03/24 08:20:39;;;;;;;23.60;14.55;;;7.90;65.30;;;;;;5078910;28;20446;-72
2022/03/24 08:23:10;;;;;;;24.70;16.10;;;8.00;65.30;;;;;;5065689;28;20215;-72
2022/03/24 08:25:40;;;;;;;22.97;14.87;;;8.00;65.20;;;;;;5071528;28;20446;-72
2022/03/24 08:28:10;;;;;;;24.55;15.88;;;8.10;65.20;;;;;;5078336;28;20479;-73
2022/03/24 08:30:38;;;;;;;23.85;16.33;;;8.10;65.20;;;;;;5074945;28;20437;-72
2022/03/24 08:33:06;;;;;;;21.90;15.47;;;8.30;64.90;;;;;;5074680;28;20617;-72
2022/03/24 08:35:34;;;;;;;23.37;15.07;;;8.30;65.00;;;;;;5070975;28;20527;-73
2022/03/24 08:38:02;;;;;;;28.63;16.63;;;8.30;65.00;;;;;;5074315;28;20461;-73
2022/03/24 08:40:32;;;;;;;24.40;14.80;;;8.40;64.90;;;;;;5075626;28;20460;-73
2022/03/24 08:42:59;;;;;;;24.07;16.37;;;8.50;65.00;;;;;;5075686;28;21012;-72
2022/03/24 08:45:28;;;;;;;19.60;14.40;;;8.50;65.00;;;;;;5076995;28;20518;-72
2022/03/24 08:47:56;;;;;;;24.17;16.17;;;8.60;65.00;;;;;;5061096;28;21071;-73
2022/03/24 08:50:24;;;;;;;26.97;15.57;;;8.70;64.90;;;;;;5075406;28;20449;-71
2022/03/24 08:52:52;;;;;;;24.53;15.10;;;8.80;64.90;;;;;;5076805;28;20462;-71
2022/03/24 08:55:20;;;;;;;31.60;15.60;;;8.80;64.90;;;;;;5074362;28;20449;-71
2022/03/24 08:57:49;;;;;;;22.20;15.17;;;8.90;64.90;;;;;;5075234;28;20449;-74
2022/03/24 09:00:18;;;;;;;23.10;15.37;;;9.00;64.90;;;;;;5074035;28;20450;-72
2022/03/24 09:02:48;;;;;;;33.13;15.67;;;9.10;64.70;;;;;;5076735;28;20440;-72
2022/03/24 09:05:17;;;;;;;27.73;16.10;;;9.20;64.70;;;;;;5074266;28;20880;-72
2022/03/24 09:07:46;;;;;;;30.57;16.90;;;9.30;64.70;;;;;;5055754;28;20466;-72
2022/03/24 09:10:15;;;;;;;24.97;14.57;;;9.40;64.80;;;;;;5076275;28;20521;-72
2022/03/24 09:12:45;;;;;;;25.43;17.27;;;9.40;64.80;;;;;;5075216;28;20836;-71
2022/03/24 09:15:17;;;;;;;24.73;15.80;;;9.50;64.80;;;;;;5072899;28;20546;-73
2022/03/24 09:17:46;;;;;;;30.67;17.37;;;9.60;64.70;;;;;;5076002;28;20446;-73
2022/03/24 09:20:16;;;;;;;22.67;15.03;;;9.70;64.60;;;;;;5074502;28;20523;-73
2022/03/24 09:22:45;;;;;;;32.90;18.87;;;9.80;64.60;;;;;;5074271;28;20445;-72
2022/03/24 09:25:15;;;;;;;28.57;18.00;;;9.80;64.60;;;;;;5073666;28;20491;-72
2022/03/24 09:27:44;;;;;;;27.13;16.90;;;10.00;64.60;;;;;;5072013;28;20489;-70
2022/03/24 09:30:18;;;;;;;35.03;19.17;;;10.00;64.50;;;;;;5068451;28;20450;-71
2022/03/24 09:32:46;;;;;;;30.30;17.53;;;10.10;64.50;;;;;;5079131;28;20448;-72
2022/03/24 09:35:15;;;;;;;27.33;17.80;;;10.20;64.50;;;;;;5072096;28;20470;-72
2022/03/24 09:37:43;;;;;;;30.40;18.30;;;10.30;64.40;;;;;;5073511;28;20458;-71
2022/03/24 09:40:12;;;;;;;29.80;19.23;;;10.40;64.40;;;;;;5069073;28;20454;-70
2022/03/24 09:42:41;;;;;;;36.97;20.60;;;10.50;64.40;;;;;;5072871;28;20449;-74
2022/03/24 09:45:11;;;;;;;29.37;18.57;;;10.60;64.30;;;;;;5074945;28;20477;-70
2022/03/24 09:47:41;;;;;;;33.63;18.87;;;10.70;64.20;;;;;;5073670;28;20469;-73
2022/03/24 09:50:10;;;;;;;38.60;25.55;;;10.80;64.10;;;;;;5071437;28;20444;-74
2022/03/24 09:52:39;;;;;;;33.97;21.07;;;10.90;63.70;;;;;;5078144;28;20211;-72
2022/03/24 09:55:08;;;;;;;35.37;21.67;;;11.00;63.60;;;;;;5075761;28;20518;-73
2022/03/24 09:57:37;;;;;;;37.23;21.03;;;11.10;63.60;;;;;;5064676;28;20503;-74
2022/03/24 10:00:25;;;;;;;35.63;21.00;;;11.20;63.40;;;;;;5076930;28;20518;-73
2022/03/24 10:03:16;;;;;;;36.33;22.30;;;11.30;63.30;;;;;;5074226;28;20453;-74
2022/03/24 10:05:58;;;;;;;42.23;23.83;;;11.40;63.00;;;;;;5068052;28;20524;-72
2022/03/24 10:08:28;;;;;;;37.33;23.33;;;11.50;62.60;;;;;;5071184;28;20467;-73
2022/03/24 10:11:00;;;;;;;35.93;24.07;;;11.60;62.50;;;;;;5073010;28;20454;-72
2022/03/24 10:13:42;;;;;;;43.67;23.27;;;11.70;62.10;;;;;;5075758;28;20473;-74
2022/03/24 10:16:13;;;;;;;35.80;23.10;;;11.80;62.10;;;;;;5074082;28;20571;-74
2022/03/24 10:18:57;;;;;;;37.80;23.23;;;11.90;62.00;;;;;;5074236;28;20450;-74
2022/03/24 10:21:29;;;;;;;40.30;23.80;;;12.00;61.80;;;;;;5073892;28;21001;-72
2022/03/24 10:24:00;;;;;;;39.60;24.10;;;12.00;61.80;;;;;;5072207;28;20474;-74
2022/03/24 10:26:41;;;;;;;44.50;26.70;;;12.10;61.70;;;;;;5073680;28;20453;-74
2022/03/24 10:29:09;;;;;;;40.47;25.77;;;12.30;61.30;;;;;;5075060;28;20465;-74
2022/03/24 10:31:39;;;;;;;43.30;25.13;;;12.30;61.10;;;;;;5078117;28;20542;-72
2022/03/24 10:34:10;;;;;;;40.60;25.83;;;12.40;60.70;;;;;;5078594;28;20476;-75
2022/03/24 10:36:42;;;;;;;40.00;25.30;;;12.50;60.70;;;;;;5074791;28;20453;-74
2022/03/24 10:39:10;;;;;;;43.70;25.63;;;12.50;60.60;;;;;;5056045;28;20453;-71
2022/03/24 10:41:39;;;;;;;40.83;25.90;;;12.60;60.50;;;;;;5077388;28;20449;-74
2022/03/24 10:44:09;;;;;;;41.20;25.60;;;12.70;60.30;;;;;;5079659;28;20496;-73
2022/03/24 10:46:39;;;;;;;40.43;24.33;;;12.80;60.10;;;;;;5083152;28;20478;-73
2022/03/24 10:49:23;;;;;;;39.57;25.47;;;12.80;59.70;;;;;;5080976;28;20501;-72
2022/03/24 10:51:58;;;;;;;37.63;25.97;;;12.90;59.50;;;;;;5081059;28;20534;-72
2022/03/24 10:54:30;;;;;;;43.37;27.13;;;13.00;59.50;;;;;;5078452;28;20483;-73
2022/03/24 10:57:03;;;;;;;39.37;25.40;;;13.10;59.60;;;;;;5076000;28;20446;-72
2022/03/24 10:59:35;;;;;;;39.67;26.10;;;13.20;59.20;;;;;;5084017;28;20446;-72
2022/03/24 11:02:04;;;;;;;39.30;25.10;;;13.30;59.20;;;;;;5074200;28;20477;-72
2022/03/24 11:04:33;;;;;;;41.07;27.27;;;13.40;59.20;;;;;;5076309;28;20473;-71
2022/03/24 11:07:01;;;;;;;44.03;24.87;;;13.50;58.70;;;;;;5074670;28;20543;-73
2022/03/24 11:09:32;;;;;;;38.30;25.03;;;13.60;58.20;;;;;;5076537;28;20468;-73
2022/03/24 11:12:23;;;;;;;37.00;24.87;;;13.60;58.00;;;;;;5058472;28;20464;-73
2022/03/24 11:14:54;;;;;;;38.67;26.07;;;13.70;57.50;;;;;;5076262;28;21242;-73
2022/03/24 11:17:23;;;;;;;45.27;27.13;;;13.70;57.40;;;;;;5076824;28;20477;-72
2022/03/24 11:20:06;;;;;;;40.33;26.73;;;13.80;57.50;;;;;;5076269;28;21029;-74
2022/03/24 11:22:40;;;;;;;40.17;25.10;;;13.90;57.40;;;;;;5063488;28;20534;-74
2022/03/24 11:25:08;;;;;;;37.10;24.77;;;13.90;57.30;;;;;;5074280;28;20465;-74
2022/03/24 11:27:36;;;;;;;39.70;26.20;;;14.10;56.90;;;;;;5075888;28;20458;-71
2022/03/24 11:30:06;;;;;;;37.87;25.07;;;14.10;56.20;;;;;;5077696;28;20450;-73
2022/03/24 11:32:37;;;;;;;37.87;23.60;;;14.10;55.70;;;;;;5076989;28;20473;-73
2022/03/24 11:35:08;;;;;;;36.23;25.03;;;14.10;55.80;;;;;;5076376;28;20485;-72
2022/03/24 11:37:36;;;;;;;34.67;25.00;;;14.20;55.30;;;;;;5075099;28;21418;-73
2022/03/24 11:40:08;;;;;;;34.37;23.27;;;14.20;55.40;;;;;;5073151;28;20471;-72
2022/03/24 11:42:44;;;;;;;35.30;24.07;;;14.30;54.80;;;;;;5078130;28;20799;-73
2022/03/24 11:45:22;;;;;;;37.50;22.43;;;14.30;54.90;;;;;;5060915;28;20476;-73
2022/03/24 11:47:54;;;;;;;37.77;23.17;;;14.40;54.40;;;;;;5078525;28;20453;-72
2022/03/24 11:50:40;;;;;;;39.13;23.73;;;14.40;53.70;;;;;;5073459;28;20446;-73
2022/03/24 11:53:39;;;;;;;30.13;21.67;;;14.40;53.90;;;;;;5072874;28;20468;-73
2022/03/24 11:56:18;;;;;;;32.33;21.90;;;14.50;53.40;;;;;;5072853;28;20450;-73
2022/03/24 11:59:17;;;;;;;32.80;22.10;;;14.60;53.40;;;;;;5082656;28;20506;-73
2022/03/24 12:01:46;;;;;;;31.57;21.43;;;14.60;52.90;;;;;;5079709;28;20485;-72
2022/03/24 12:04:14;;;;;;;30.83;20.70;;;14.60;52.90;;;;;;5074915;28;20470;-72
2022/03/24 12:06:55;;;;;;;34.70;22.70;;;14.70;52.60;;;;;;5080528;28;20457;-72
2022/03/24 12:09:28;;;;;;;36.07;22.93;;;14.70;52.10;;;;;;5075832;28;20901;-72
2022/03/24 12:12:10;;;;;;;31.70;22.17;;;14.70;52.50;;;;;;5078039;28;20449;-73
2022/03/24 12:14:45;;;;;;;37.90;23.20;;;14.80;52.10;;;;;;5077363;28;20502;-72
2022/03/24 12:17:18;;;;;;;31.23;22.03;;;14.90;51.90;;;;;;5076208;28;21073;-73
2022/03/24 12:19:49;;;;;;;31.47;20.10;;;14.90;51.60;;;;;;5073410;28;20453;-73
2022/03/24 12:22:38;;;;;;;35.37;21.40;;;14.90;51.30;;;;;;5077037;28;20453;-73
2022/03/24 12:25:24;;;;;;;28.30;19.90;;;15.00;51.20;;;;;;5072524;28;20473;-73
2022/03/24 12:28:14;;;;;;;44.60;21.67;;;15.00;51.10;;;;;;5075750;28;20453;-73
2022/03/24 12:30:49;;;;;;;29.53;20.90;;;15.10;50.90;;;;;;5075596;28;20518;-74
2022/03/24 12:33:18;;;;;;;29.20;19.23;;;15.10;50.30;;;;;;5077408;28;20912;-72
2022/03/24 12:35:49;;;;;;;31.73;20.03;;;15.20;50.30;;;;;;5078200;28;21234;-73
2022/03/24 12:38:43;;;;;;;29.53;19.63;;;15.20;49.90;;;;;;5073805;28;20500;-74
2022/03/24 12:41:23;;;;;;;27.97;20.30;;;15.20;49.70;;;;;;5076129;28;21273;-72
2022/03/24 12:43:59;;;;;;;32.90;20.00;;;15.30;49.60;;;;;;5078415;28;20470;-72
2022/03/24 12:46:33;;;;;;;29.93;20.13;;;15.30;49.40;;;;;;5075289;28;20559;-71
2022/03/24 12:49:24;;;;;;;29.57;20.30;;;15.30;49.30;;;;;;5071870;28;20517;-72
2022/03/24 12:51:54;;;;;;;32.67;20.77;;;15.40;49.20;;;;;;5072127;28;20458;-72